sensor_id;sensor_type;location;lat;lon;timestamp;P1;durP1;ratioP1;P2;durP2;ratioP2
9960;SDS011;5021;51.506;11.320;2023-03-31T00:00:20;2.83;;;1.77;;
9960;SDS011;5021;51.506;11.320;2023-03-31T00:02:47;3.83;;;1.70;;
9960;SDS011;5021;51.506;11.320;2023-03-31T00:05:13;2.80;;;1.70;;
9960;SDS011;5021;51.506;11.320;2023-03-31T00:07:41;2.67;;;1.70;;
9960;SDS011;5021;51.506;11.320;2023-03-31T00:10:07;3.10;;;1.83;;
9960;SDS011;5021;51.506;11.320;2023-03-31T00:12:34;2.27;;;1.57;;
9960;SDS011;5021;51.506;11.320;2023-03-31T00:15:00;1.97;;;1.77;;
9960;SDS011;5021;51.506;11.320;2023-03-31T00:17:26;3.60;;;1.87;;
9960;SDS011;5021;51.506;11.320;2023-03-31T00:19:52;2.53;;;1.80;;
9960;SDS011;5021;51.506;11.320;2023-03-31T00:22:24;2.37;;;1.60;;
9960;SDS011;5021;51.506;11.320;2023-03-31T00:24:51;2.40;;;1.90;;
9960;SDS011;5021;51.506;11.320;2023-03-31T00:27:17;4.10;;;1.97;;
9960;SDS011;5021;51.506;11.320;2023-03-31T00:29:43;2.33;;;1.90;;
9960;SDS011;5021;51.506;11.320;2023-03-31T00:32:09;4.07;;;2.10;;
9960;SDS011;5021;51.506;11.320;2023-03-31T00:34:35;2.77;;;2.20;;
9960;SDS011;5021;51.506;11.320;2023-03-31T00:37:02;4.40;;;2.00;;
9960;SDS011;5021;51.506;11.320;2023-03-31T00:39:29;2.47;;;1.97;;
9960;SDS011;5021;51.506;11.320;2023-03-31T00:42:00;3.90;;;2.10;;
9960;SDS011;5021;51.506;11.320;2023-03-31T00:44:27;3.13;;;2.20;;
9960;SDS011;5021;51.506;11.320;2023-03-31T00:47:04;3.93;;;2.23;;
9960;SDS011;5021;51.506;11.320;2023-03-31T00:49:34;5.10;;;2.80;;
9960;SDS011;5021;51.506;11.320;2023-03-31T00:52:11;3.33;;;2.70;;
9960;SDS011;5021;51.506;11.320;2023-03-31T00:54:37;4.63;;;3.23;;
9960;SDS011;5021;51.506;11.320;2023-03-31T00:57:05;5.97;;;3.30;;
9960;SDS011;5021;51.506;11.320;2023-03-31T00:59:35;3.60;;;3.00;;
9960;SDS011;5021;51.506;11.320;2023-03-31T01:02:02;4.70;;;3.47;;
9960;SDS011;5021;51.506;11.320;2023-03-31T01:04:29;5.00;;;2.80;;
9960;SDS011;5021;51.506;11.320;2023-03-31T01:07:30;4.07;;;2.87;;
9960;SDS011;5021;51.506;11.320;2023-03-31T01:09:49;3.57;;;2.70;;
9960;SDS011;5021;51.506;11.320;2023-03-31T01:12:18;2.93;;;2.57;;
9960;SDS011;5021;51.506;11.320;2023-03-31T01:14:45;4.10;;;3.03;;
9960;SDS011;5021;51.506;11.320;2023-03-31T01:17:11;6.10;;;3.17;;
9960;SDS011;5021;51.506;11.320;2023-03-31T01:41:29;4.53;;;2.80;;
9960;SDS011;5021;51.506;11.320;2023-03-31T01:44:03;5.87;;;2.43;;
9960;SDS011;5021;51.506;11.320;2023-03-31T01:46:36;3.83;;;2.20;;
9960;SDS011;5021;51.506;11.320;2023-03-31T01:51:44;5.90;;;2.70;;
9960;SDS011;5021;51.506;11.320;2023-03-31T01:54:20;7.67;;;2.83;;
9960;SDS011;5021;51.506;11.320;2023-03-31T01:56:57;5.53;;;2.80;;
9960;SDS011;5021;51.506;11.320;2023-03-31T01:59:36;5.83;;;2.97;;
9960;SDS011;5021;51.506;11.320;2023-03-31T02:02:07;4.27;;;2.60;;
9960;SDS011;5021;51.506;11.320;2023-03-31T02:04:40;3.60;;;2.77;;
9960;SDS011;5021;51.506;11.320;2023-03-31T02:07:09;5.47;;;2.87;;
9960;SDS011;5021;51.506;11.320;2023-03-31T02:09:38;5.20;;;3.07;;
9960;SDS011;5021;51.506;11.320;2023-03-31T02:12:07;6.40;;;2.70;;
9960;SDS011;5021;51.506;11.320;2023-03-31T02:14:33;3.80;;;2.50;;
9960;SDS011;5021;51.506;11.320;2023-03-31T02:17:01;4.93;;;2.87;;
9960;SDS011;5021;51.506;11.320;2023-03-31T02:19:31;3.57;;;2.57;;
9960;SDS011;5021;51.506;11.320;2023-03-31T02:21:58;4.10;;;2.43;;
9960;SDS011;5021;51.506;11.320;2023-03-31T02:24:25;4.83;;;2.70;;
9960;SDS011;5021;51.506;11.320;2023-03-31T02:27:03;4.53;;;2.40;;
9960;SDS011;5021;51.506;11.320;2023-03-31T02:29:30;3.27;;;2.47;;
9960;SDS011;5021;51.506;11.320;2023-03-31T02:34:22;3.87;;;2.67;;
9960;SDS011;5021;51.506;11.320;2023-03-31T02:36:48;3.77;;;2.30;;
9960;SDS011;5021;51.506;11.320;2023-03-31T02:39:15;5.43;;;2.10;;
9960;SDS011;5021;51.506;11.320;2023-03-31T02:41:42;4.23;;;2.43;;
9960;SDS011;5021;51.506;11.320;2023-03-31T02:44:09;3.40;;;2.30;;
9960;SDS011;5021;51.506;11.320;2023-03-31T02:46:35;3.33;;;2.50;;
9960;SDS011;5021;51.506;11.320;2023-03-31T02:49:02;5.33;;;2.83;;
9960;SDS011;5021;51.506;11.320;2023-03-31T02:54:30;5.53;;;2.30;;
9960;SDS011;5021;51.506;11.320;2023-03-31T03:00:25;6.67;;;2.73;;
9960;SDS011;5021;51.506;11.320;2023-03-31T03:05:38;4.80;;;3.00;;
9960;SDS011;5021;51.506;11.320;2023-03-31T03:11:00;4.53;;;2.90;;
9960;SDS011;5021;51.506;11.320;2023-03-31T03:13:34;5.43;;;2.53;;
9960;SDS011;5021;51.506;11.320;2023-03-31T03:16:09;4.93;;;3.13;;
9960;SDS011;5021;51.506;11.320;2023-03-31T03:18:37;6.07;;;2.90;;
9960;SDS011;5021;51.506;11.320;2023-03-31T03:21:04;4.00;;;2.80;;
9960;SDS011;5021;51.506;11.320;2023-03-31T03:23:30;6.73;;;3.57;;
9960;SDS011;5021;51.506;11.320;2023-03-31T03:25:57;5.73;;;3.23;;
9960;SDS011;5021;51.506;11.320;2023-03-31T03:28:22;6.37;;;2.93;;
9960;SDS011;5021;51.506;11.320;2023-03-31T03:30:48;5.57;;;3.00;;
9960;SDS011;5021;51.506;11.320;2023-03-31T03:33:15;4.73;;;2.80;;
9960;SDS011;5021;51.506;11.320;2023-03-31T03:35:41;6.30;;;3.07;;
9960;SDS011;5021;51.506;11.320;2023-03-31T03:38:07;4.90;;;2.67;;
9960;SDS011;5021;51.506;11.320;2023-03-31T03:40:33;5.10;;;2.83;;
9960;SDS011;5021;51.506;11.320;2023-03-31T03:42:59;4.57;;;3.20;;
9960;SDS011;5021;51.506;11.320;2023-03-31T03:45:25;4.90;;;3.20;;
9960;SDS011;5021;51.506;11.320;2023-03-31T03:47:51;5.87;;;3.20;;
9960;SDS011;5021;51.506;11.320;2023-03-31T03:50:17;4.77;;;2.77;;
9960;SDS011;5021;51.506;11.320;2023-03-31T03:52:43;5.67;;;3.00;;
9960;SDS011;5021;51.506;11.320;2023-03-31T03:55:09;4.87;;;3.10;;
9960;SDS011;5021;51.506;11.320;2023-03-31T03:57:36;4.70;;;2.80;;
9960;SDS011;5021;51.506;11.320;2023-03-31T04:00:02;4.57;;;3.30;;
9960;SDS011;5021;51.506;11.320;2023-03-31T04:02:33;4.80;;;2.80;;
9960;SDS011;5021;51.506;11.320;2023-03-31T04:04:59;6.53;;;3.23;;
9960;SDS011;5021;51.506;11.320;2023-03-31T04:07:25;6.83;;;3.50;;
9960;SDS011;5021;51.506;11.320;2023-03-31T04:09:51;4.87;;;3.37;;
9960;SDS011;5021;51.506;11.320;2023-03-31T04:12:17;5.23;;;3.03;;
9960;SDS011;5021;51.506;11.320;2023-03-31T04:14:43;6.30;;;3.63;;
9960;SDS011;5021;51.506;11.320;2023-03-31T04:17:09;7.90;;;3.33;;
9960;SDS011;5021;51.506;11.320;2023-03-31T04:19:39;5.60;;;3.20;;
9960;SDS011;5021;51.506;11.320;2023-03-31T04:22:06;4.97;;;3.00;;
9960;SDS011;5021;51.506;11.320;2023-03-31T04:24:35;5.60;;;3.20;;
9960;SDS011;5021;51.506;11.320;2023-03-31T04:27:02;3.73;;;2.80;;
9960;SDS011;5021;51.506;11.320;2023-03-31T04:29:31;6.90;;;3.13;;
9960;SDS011;5021;51.506;11.320;2023-03-31T04:31:58;6.23;;;3.47;;
9960;SDS011;5021;51.506;11.320;2023-03-31T04:34:24;5.27;;;3.17;;
9960;SDS011;5021;51.506;11.320;2023-03-31T04:36:58;5.67;;;3.47;;
9960;SDS011;5021;51.506;11.320;2023-03-31T04:39:26;6.13;;;3.70;;
9960;SDS011;5021;51.506;11.320;2023-03-31T04:41:54;5.87;;;3.30;;
9960;SDS011;5021;51.506;11.320;2023-03-31T04:44:20;5.83;;;3.60;;
9960;SDS011;5021;51.506;11.320;2023-03-31T04:46:46;7.63;;;3.67;;
9960;SDS011;5021;51.506;11.320;2023-03-31T04:49:12;5.73;;;3.37;;
9960;SDS011;5021;51.506;11.320;2023-03-31T04:51:38;5.07;;;3.07;;
9960;SDS011;5021;51.506;11.320;2023-03-31T04:54:04;5.17;;;3.33;;
9960;SDS011;5021;51.506;11.320;2023-03-31T04:56:30;5.13;;;3.57;;
9960;SDS011;5021;51.506;11.320;2023-03-31T04:58:56;6.77;;;4.00;;
9960;SDS011;5021;51.506;11.320;2023-03-31T05:01:22;7.87;;;4.23;;
9960;SDS011;5021;51.506;11.320;2023-03-31T05:03:48;6.83;;;3.70;;
9960;SDS011;5021;51.506;11.320;2023-03-31T05:06:14;6.40;;;3.90;;
9960;SDS011;5021;51.506;11.320;2023-03-31T05:08:40;7.20;;;3.90;;
9960;SDS011;5021;51.506;11.320;2023-03-31T05:11:06;6.23;;;3.30;;
9960;SDS011;5021;51.506;11.320;2023-03-31T05:13:32;5.03;;;3.03;;
9960;SDS011;5021;51.506;11.320;2023-03-31T05:16:04;5.60;;;2.90;;
9960;SDS011;5021;51.506;11.320;2023-03-31T05:18:30;5.57;;;2.60;;
9960;SDS011;5021;51.506;11.320;2023-03-31T05:20:56;5.47;;;3.00;;
9960;SDS011;5021;51.506;11.320;2023-03-31T05:23:22;3.67;;;2.37;;
9960;SDS011;5021;51.506;11.320;2023-03-31T05:25:48;4.30;;;2.10;;
9960;SDS011;5021;51.506;11.320;2023-03-31T05:28:14;3.23;;;2.10;;
9960;SDS011;5021;51.506;11.320;2023-03-31T05:30:40;4.80;;;2.23;;
9960;SDS011;5021;51.506;11.320;2023-03-31T05:33:06;5.20;;;2.10;;
9960;SDS011;5021;51.506;11.320;2023-03-31T05:35:32;4.63;;;2.00;;
9960;SDS011;5021;51.506;11.320;2023-03-31T05:37:58;3.67;;;2.10;;
9960;SDS011;5021;51.506;11.320;2023-03-31T05:40:24;3.40;;;2.10;;
9960;SDS011;5021;51.506;11.320;2023-03-31T05:42:50;5.67;;;2.57;;
9960;SDS011;5021;51.506;11.320;2023-03-31T05:45:15;3.87;;;2.00;;
9960;SDS011;5021;51.506;11.320;2023-03-31T05:47:41;4.90;;;2.00;;
9960;SDS011;5021;51.506;11.320;2023-03-31T05:50:07;5.00;;;2.33;;
9960;SDS011;5021;51.506;11.320;2023-03-31T05:52:34;2.77;;;1.73;;
9960;SDS011;5021;51.506;11.320;2023-03-31T05:55:00;5.67;;;2.47;;
9960;SDS011;5021;51.506;11.320;2023-03-31T05:57:26;4.83;;;2.27;;
9960;SDS011;5021;51.506;11.320;2023-03-31T05:59:52;5.67;;;2.37;;
9960;SDS011;5021;51.506;11.320;2023-03-31T06:02:18;3.80;;;2.13;;
9960;SDS011;5021;51.506;11.320;2023-03-31T06:04:43;3.37;;;1.90;;
9960;SDS011;5021;51.506;11.320;2023-03-31T06:07:09;2.33;;;1.90;;
9960;SDS011;5021;51.506;11.320;2023-03-31T06:09:35;2.90;;;1.97;;
9960;SDS011;5021;51.506;11.320;2023-03-31T06:12:01;4.63;;;1.80;;
9960;SDS011;5021;51.506;11.320;2023-03-31T06:14:27;5.07;;;2.20;;
9960;SDS011;5021;51.506;11.320;2023-03-31T06:16:53;4.53;;;2.57;;
9960;SDS011;5021;51.506;11.320;2023-03-31T06:19:19;4.07;;;2.27;;
9960;SDS011;5021;51.506;11.320;2023-03-31T06:21:45;3.70;;;2.07;;
9960;SDS011;5021;51.506;11.320;2023-03-31T06:24:11;5.53;;;2.60;;
9960;SDS011;5021;51.506;11.320;2023-03-31T06:26:37;5.00;;;2.10;;
9960;SDS011;5021;51.506;11.320;2023-03-31T06:29:03;4.90;;;2.20;;
9960;SDS011;5021;51.506;11.320;2023-03-31T06:31:29;6.23;;;2.03;;
9960;SDS011;5021;51.506;11.320;2023-03-31T06:33:56;5.40;;;2.20;;
9960;SDS011;5021;51.506;11.320;2023-03-31T06:36:22;5.93;;;2.17;;
9960;SDS011;5021;51.506;11.320;2023-03-31T06:38:48;2.93;;;2.00;;
9960;SDS011;5021;51.506;11.320;2023-03-31T06:41:15;4.80;;;2.10;;
9960;SDS011;5021;51.506;11.320;2023-03-31T06:43:42;4.87;;;1.97;;
9960;SDS011;5021;51.506;11.320;2023-03-31T06:46:07;2.73;;;1.80;;
9960;SDS011;5021;51.506;11.320;2023-03-31T06:48:33;2.20;;;1.50;;
9960;SDS011;5021;51.506;11.320;2023-03-31T06:51:00;4.43;;;2.13;;
9960;SDS011;5021;51.506;11.320;2023-03-31T06:53:27;4.50;;;2.40;;
9960;SDS011;5021;51.506;11.320;2023-03-31T06:55:53;4.23;;;2.70;;
9960;SDS011;5021;51.506;11.320;2023-03-31T06:58:19;4.73;;;2.63;;
9960;SDS011;5021;51.506;11.320;2023-03-31T07:00:45;2.67;;;2.03;;
9960;SDS011;5021;51.506;11.320;2023-03-31T07:03:11;4.17;;;2.30;;
9960;SDS011;5021;51.506;11.320;2023-03-31T07:05:37;5.23;;;2.43;;
9960;SDS011;5021;51.506;11.320;2023-03-31T07:08:04;3.13;;;2.07;;
9960;SDS011;5021;51.506;11.320;2023-03-31T07:10:30;5.70;;;2.70;;
9960;SDS011;5021;51.506;11.320;2023-03-31T07:12:57;4.10;;;2.10;;
9960;SDS011;5021;51.506;11.320;2023-03-31T07:15:24;5.43;;;1.93;;
9960;SDS011;5021;51.506;11.320;2023-03-31T07:17:52;3.77;;;1.97;;
9960;SDS011;5021;51.506;11.320;2023-03-31T07:20:26;2.93;;;1.80;;
9960;SDS011;5021;51.506;11.320;2023-03-31T07:22:52;4.17;;;2.00;;
9960;SDS011;5021;51.506;11.320;2023-03-31T07:25:18;4.43;;;1.97;;
9960;SDS011;5021;51.506;11.320;2023-03-31T07:27:44;2.33;;;2.07;;
9960;SDS011;5021;51.506;11.320;2023-03-31T07:30:14;3.77;;;1.80;;
9960;SDS011;5021;51.506;11.320;2023-03-31T07:32:40;3.63;;;1.67;;
9960;SDS011;5021;51.506;11.320;2023-03-31T07:35:07;3.63;;;2.37;;
9960;SDS011;5021;51.506;11.320;2023-03-31T07:37:39;5.03;;;1.80;;
9960;SDS011;5021;51.506;11.320;2023-03-31T07:40:06;2.77;;;1.80;;
9960;SDS011;5021;51.506;11.320;2023-03-31T07:42:33;3.67;;;2.03;;
9960;SDS011;5021;51.506;11.320;2023-03-31T07:45:00;5.60;;;2.10;;
9960;SDS011;5021;51.506;11.320;2023-03-31T07:47:26;3.77;;;1.83;;
9960;SDS011;5021;51.506;11.320;2023-03-31T07:49:52;2.50;;;1.80;;
9960;SDS011;5021;51.506;11.320;2023-03-31T07:52:18;3.40;;;2.03;;
9960;SDS011;5021;51.506;11.320;2023-03-31T07:54:45;3.70;;;2.03;;
9960;SDS011;5021;51.506;11.320;2023-03-31T07:57:11;3.07;;;1.80;;
9960;SDS011;5021;51.506;11.320;2023-03-31T07:59:37;3.87;;;1.97;;
9960;SDS011;5021;51.506;11.320;2023-03-31T08:02:03;6.20;;;2.70;;
9960;SDS011;5021;51.506;11.320;2023-03-31T08:04:29;3.80;;;1.93;;
9960;SDS011;5021;51.506;11.320;2023-03-31T08:06:55;5.17;;;2.30;;
9960;SDS011;5021;51.506;11.320;2023-03-31T08:09:21;2.93;;;2.20;;
9960;SDS011;5021;51.506;11.320;2023-03-31T08:11:47;4.23;;;2.30;;
9960;SDS011;5021;51.506;11.320;2023-03-31T08:14:13;4.97;;;2.53;;
9960;SDS011;5021;51.506;11.320;2023-03-31T08:16:40;3.10;;;2.50;;
9960;SDS011;5021;51.506;11.320;2023-03-31T08:19:05;5.03;;;2.40;;
9960;SDS011;5021;51.506;11.320;2023-03-31T08:21:31;4.37;;;2.50;;
9960;SDS011;5021;51.506;11.320;2023-03-31T08:23:57;7.33;;;2.60;;
9960;SDS011;5021;51.506;11.320;2023-03-31T08:26:23;5.20;;;2.60;;
9960;SDS011;5021;51.506;11.320;2023-03-31T08:28:50;5.57;;;2.60;;
9960;SDS011;5021;51.506;11.320;2023-03-31T08:31:17;4.33;;;2.50;;
9960;SDS011;5021;51.506;11.320;2023-03-31T08:33:43;4.27;;;2.40;;
9960;SDS011;5021;51.506;11.320;2023-03-31T08:36:09;4.73;;;2.90;;
9960;SDS011;5021;51.506;11.320;2023-03-31T08:38:36;5.70;;;2.87;;
9960;SDS011;5021;51.506;11.320;2023-03-31T08:41:03;5.20;;;2.77;;
9960;SDS011;5021;51.506;11.320;2023-03-31T08:43:38;5.07;;;2.67;;
9960;SDS011;5021;51.506;11.320;2023-03-31T08:46:08;4.17;;;2.37;;
9960;SDS011;5021;51.506;11.320;2023-03-31T08:48:46;3.93;;;2.80;;
9960;SDS011;5021;51.506;11.320;2023-03-31T08:51:23;5.10;;;2.93;;
9960;SDS011;5021;51.506;11.320;2023-03-31T08:54:02;6.73;;;2.80;;
9960;SDS011;5021;51.506;11.320;2023-03-31T08:56:29;4.30;;;2.57;;
9960;SDS011;5021;51.506;11.320;2023-03-31T08:58:56;4.20;;;2.33;;
9960;SDS011;5021;51.506;11.320;2023-03-31T09:06:38;4.13;;;2.30;;
9960;SDS011;5021;51.506;11.320;2023-03-31T09:09:09;4.00;;;2.60;;
9960;SDS011;5021;51.506;11.320;2023-03-31T09:11:37;6.17;;;2.40;;
9960;SDS011;5021;51.506;11.320;2023-03-31T09:14:09;6.33;;;2.40;;
9960;SDS011;5021;51.506;11.320;2023-03-31T09:16:47;6.83;;;2.27;;
9960;SDS011;5021;51.506;11.320;2023-03-31T09:19:17;4.47;;;2.73;;
9960;SDS011;5021;51.506;11.320;2023-03-31T09:21:45;8.70;;;2.80;;
9960;SDS011;5021;51.506;11.320;2023-03-31T09:24:22;4.37;;;2.17;;
9960;SDS011;5021;51.506;11.320;2023-03-31T09:29:27;4.40;;;2.30;;
9960;SDS011;5021;51.506;11.320;2023-03-31T09:31:59;4.10;;;2.73;;
9960;SDS011;5021;51.506;11.320;2023-03-31T09:34:27;5.27;;;2.80;;
9960;SDS011;5021;51.506;11.320;2023-03-31T09:36:54;6.47;;;3.37;;
9960;SDS011;5021;51.506;11.320;2023-03-31T09:39:20;8.30;;;2.80;;
9960;SDS011;5021;51.506;11.320;2023-03-31T09:41:48;5.03;;;2.40;;
9960;SDS011;5021;51.506;11.320;2023-03-31T09:44:24;3.80;;;2.30;;
9960;SDS011;5021;51.506;11.320;2023-03-31T09:46:51;4.63;;;2.30;;
9960;SDS011;5021;51.506;11.320;2023-03-31T09:49:19;4.33;;;2.50;;
9960;SDS011;5021;51.506;11.320;2023-03-31T09:51:47;4.77;;;2.57;;
9960;SDS011;5021;51.506;11.320;2023-03-31T09:54:15;4.57;;;2.50;;
9960;SDS011;5021;51.506;11.320;2023-03-31T09:56:46;4.90;;;2.70;;
9960;SDS011;5021;51.506;11.320;2023-03-31T09:59:16;4.53;;;3.03;;
9960;SDS011;5021;51.506;11.320;2023-03-31T10:01:43;5.43;;;2.60;;
9960;SDS011;5021;51.506;11.320;2023-03-31T10:04:09;4.97;;;3.00;;
9960;SDS011;5021;51.506;11.320;2023-03-31T10:06:41;4.37;;;2.47;;
9960;SDS011;5021;51.506;11.320;2023-03-31T10:09:08;5.87;;;2.67;;
9960;SDS011;5021;51.506;11.320;2023-03-31T10:11:35;4.67;;;2.80;;
9960;SDS011;5021;51.506;11.320;2023-03-31T10:14:02;7.73;;;2.93;;
9960;SDS011;5021;51.506;11.320;2023-03-31T10:19:11;6.53;;;3.97;;
9960;SDS011;5021;51.506;11.320;2023-03-31T10:21:38;5.10;;;3.50;;
9960;SDS011;5021;51.506;11.320;2023-03-31T10:24:08;8.20;;;4.10;;
9960;SDS011;5021;51.506;11.320;2023-03-31T10:26:34;5.80;;;3.77;;
9960;SDS011;5021;51.506;11.320;2023-03-31T10:29:01;7.03;;;3.80;;
9960;SDS011;5021;51.506;11.320;2023-03-31T10:31:34;5.87;;;3.33;;
9960;SDS011;5021;51.506;11.320;2023-03-31T10:34:07;3.90;;;3.13;;
9960;SDS011;5021;51.506;11.320;2023-03-31T10:36:36;3.80;;;3.00;;
9960;SDS011;5021;51.506;11.320;2023-03-31T10:39:05;5.70;;;2.80;;
9960;SDS011;5021;51.506;11.320;2023-03-31T10:41:32;5.50;;;3.37;;
9960;SDS011;5021;51.506;11.320;2023-03-31T10:43:58;3.30;;;2.50;;
9960;SDS011;5021;51.506;11.320;2023-03-31T10:46:39;4.97;;;2.97;;
9960;SDS011;5021;51.506;11.320;2023-03-31T10:49:19;5.30;;;3.20;;
9960;SDS011;5021;51.506;11.320;2023-03-31T10:51:50;4.50;;;2.87;;
9960;SDS011;5021;51.506;11.320;2023-03-31T10:54:16;5.13;;;2.93;;
9960;SDS011;5021;51.506;11.320;2023-03-31T10:56:48;3.97;;;3.10;;
9960;SDS011;5021;51.506;11.320;2023-03-31T11:02:19;4.10;;;2.90;;
9960;SDS011;5021;51.506;11.320;2023-03-31T11:10:01;5.63;;;4.50;;
9960;SDS011;5021;51.506;11.320;2023-03-31T11:12:33;4.70;;;3.30;;
9960;SDS011;5021;51.506;11.320;2023-03-31T11:15:13;4.77;;;2.93;;
9960;SDS011;5021;51.506;11.320;2023-03-31T11:20:22;5.50;;;2.73;;
9960;SDS011;5021;51.506;11.320;2023-03-31T11:28:10;4.60;;;2.87;;
9960;SDS011;5021;51.506;11.320;2023-03-31T11:30:42;5.67;;;3.00;;
9960;SDS011;5021;51.506;11.320;2023-03-31T11:38:35;3.93;;;3.30;;
9960;SDS011;5021;51.506;11.320;2023-03-31T11:41:10;3.60;;;2.67;;
9960;SDS011;5021;51.506;11.320;2023-03-31T11:43:53;2.53;;;2.07;;
9960;SDS011;5021;51.506;11.320;2023-03-31T11:51:13;3.67;;;2.43;;
9960;SDS011;5021;51.506;11.320;2023-03-31T11:53:41;2.60;;;2.20;;
9960;SDS011;5021;51.506;11.320;2023-03-31T11:56:08;2.50;;;2.03;;
9960;SDS011;5021;51.506;11.320;2023-03-31T11:58:40;3.17;;;1.97;;
9960;SDS011;5021;51.506;11.320;2023-03-31T12:04:08;3.27;;;2.10;;
9960;SDS011;5021;51.506;11.320;2023-03-31T12:06:39;4.07;;;2.23;;
9960;SDS011;5021;51.506;11.320;2023-03-31T12:09:09;3.17;;;2.20;;
9960;SDS011;5021;51.506;11.320;2023-03-31T12:11:40;2.50;;;2.00;;
9960;SDS011;5021;51.506;11.320;2023-03-31T12:14:17;2.40;;;1.93;;
9960;SDS011;5021;51.506;11.320;2023-03-31T12:16:46;3.17;;;2.00;;
9960;SDS011;5021;51.506;11.320;2023-03-31T12:19:21;3.13;;;2.00;;
9960;SDS011;5021;51.506;11.320;2023-03-31T12:21:53;3.37;;;1.90;;
9960;SDS011;5021;51.506;11.320;2023-03-31T12:24:20;2.00;;;1.60;;
9960;SDS011;5021;51.506;11.320;2023-03-31T12:27:28;2.20;;;2.00;;
9960;SDS011;5021;51.506;11.320;2023-03-31T12:29:44;4.43;;;2.30;;
9960;SDS011;5021;51.506;11.320;2023-03-31T12:32:12;3.43;;;2.30;;
9960;SDS011;5021;51.506;11.320;2023-03-31T12:34:42;3.27;;;2.20;;
9960;SDS011;5021;51.506;11.320;2023-03-31T12:39:43;2.80;;;2.20;;
9960;SDS011;5021;51.506;11.320;2023-03-31T12:47:18;3.40;;;2.30;;
9960;SDS011;5021;51.506;11.320;2023-03-31T12:57:20;2.63;;;1.90;;
9960;SDS011;5021;51.506;11.320;2023-03-31T13:00:07;2.33;;;1.70;;
9960;SDS011;5021;51.506;11.320;2023-03-31T13:02:36;2.80;;;2.10;;
9960;SDS011;5021;51.506;11.320;2023-03-31T13:07:46;1.87;;;1.40;;
9960;SDS011;5021;51.506;11.320;2023-03-31T13:12:38;2.77;;;2.00;;
9960;SDS011;5021;51.506;11.320;2023-03-31T13:15:05;2.63;;;1.70;;
9960;SDS011;5021;51.506;11.320;2023-03-31T13:17:38;3.20;;;1.80;;
9960;SDS011;5021;51.506;11.320;2023-03-31T13:20:25;2.57;;;1.67;;
9960;SDS011;5021;51.506;11.320;2023-03-31T13:23:27;4.83;;;1.77;;
9960;SDS011;5021;51.506;11.320;2023-03-31T13:25:47;2.60;;;1.80;;
9960;SDS011;5021;51.506;11.320;2023-03-31T13:33:09;2.13;;;1.90;;
9960;SDS011;5021;51.506;11.320;2023-03-31T13:35:37;2.47;;;1.80;;
9960;SDS011;5021;51.506;11.320;2023-03-31T13:38:17;3.53;;;1.83;;
9960;SDS011;5021;51.506;11.320;2023-03-31T13:46:12;2.77;;;2.20;;
9960;SDS011;5021;51.506;11.320;2023-03-31T13:56:40;3.17;;;2.30;;
9960;SDS011;5021;51.506;11.320;2023-03-31T14:06:59;2.83;;;2.10;;
9960;SDS011;5021;51.506;11.320;2023-03-31T14:11:57;3.17;;;2.10;;
9960;SDS011;5021;51.506;11.320;2023-03-31T14:14:23;2.00;;;1.80;;
9960;SDS011;5021;51.506;11.320;2023-03-31T14:16:51;1.90;;;1.70;;
9960;SDS011;5021;51.506;11.320;2023-03-31T14:22:11;2.90;;;1.80;;
9960;SDS011;5021;51.506;11.320;2023-03-31T14:24:43;2.87;;;1.70;;
9960;SDS011;5021;51.506;11.320;2023-03-31T14:27:20;3.50;;;1.97;;
9960;SDS011;5021;51.506;11.320;2023-03-31T14:29:56;2.70;;;1.60;;
9960;SDS011;5021;51.506;11.320;2023-03-31T14:32:34;3.67;;;2.20;;
9960;SDS011;5021;51.506;11.320;2023-03-31T14:35:07;3.53;;;2.40;;
9960;SDS011;5021;51.506;11.320;2023-03-31T14:37:34;3.07;;;1.90;;
9960;SDS011;5021;51.506;11.320;2023-03-31T14:40:00;2.90;;;1.60;;
9960;SDS011;5021;51.506;11.320;2023-03-31T14:42:37;2.30;;;1.70;;
9960;SDS011;5021;51.506;11.320;2023-03-31T14:45:25;3.17;;;1.87;;
9960;SDS011;5021;51.506;11.320;2023-03-31T14:47:54;2.90;;;1.67;;
9960;SDS011;5021;51.506;11.320;2023-03-31T14:50:20;4.17;;;2.33;;
9960;SDS011;5021;51.506;11.320;2023-03-31T14:52:47;4.17;;;2.37;;
9960;SDS011;5021;51.506;11.320;2023-03-31T14:55:14;2.67;;;2.30;;
9960;SDS011;5021;51.506;11.320;2023-03-31T14:57:41;3.83;;;2.10;;
9960;SDS011;5021;51.506;11.320;2023-03-31T15:00:08;4.13;;;2.03;;
9960;SDS011;5021;51.506;11.320;2023-03-31T15:02:39;2.17;;;1.67;;
9960;SDS011;5021;51.506;11.320;2023-03-31T15:05:27;3.13;;;1.97;;
9960;SDS011;5021;51.506;11.320;2023-03-31T15:08:01;3.87;;;2.30;;
9960;SDS011;5021;51.506;11.320;2023-03-31T15:10:30;2.53;;;1.70;;
9960;SDS011;5021;51.506;11.320;2023-03-31T15:12:57;4.00;;;2.20;;
9960;SDS011;5021;51.506;11.320;2023-03-31T15:15:25;2.73;;;1.77;;
9960;SDS011;5021;51.506;11.320;2023-03-31T15:17:51;2.80;;;1.93;;
9960;SDS011;5021;51.506;11.320;2023-03-31T15:20:20;4.47;;;2.70;;
9960;SDS011;5021;51.506;11.320;2023-03-31T15:22:48;4.57;;;2.63;;
9960;SDS011;5021;51.506;11.320;2023-03-31T15:25:14;3.73;;;3.10;;
9960;SDS011;5021;51.506;11.320;2023-03-31T15:27:52;3.77;;;2.40;;
9960;SDS011;5021;51.506;11.320;2023-03-31T15:30:20;3.37;;;2.20;;
9960;SDS011;5021;51.506;11.320;2023-03-31T15:32:48;4.17;;;2.80;;
9960;SDS011;5021;51.506;11.320;2023-03-31T15:35:19;3.30;;;2.50;;
9960;SDS011;5021;51.506;11.320;2023-03-31T15:37:46;4.07;;;3.30;;
9960;SDS011;5021;51.506;11.320;2023-03-31T15:40:20;4.63;;;2.80;;
9960;SDS011;5021;51.506;11.320;2023-03-31T15:42:47;3.50;;;2.90;;
9960;SDS011;5021;51.506;11.320;2023-03-31T15:47:57;5.50;;;2.70;;
9960;SDS011;5021;51.506;11.320;2023-03-31T15:50:26;2.63;;;2.00;;
9960;SDS011;5021;51.506;11.320;2023-03-31T15:52:53;3.03;;;2.13;;
9960;SDS011;5021;51.506;11.320;2023-03-31T15:57:48;4.97;;;2.37;;
9960;SDS011;5021;51.506;11.320;2023-03-31T16:01:00;5.10;;;2.23;;
9960;SDS011;5021;51.506;11.320;2023-03-31T16:03:17;3.40;;;1.73;;
9960;SDS011;5021;51.506;11.320;2023-03-31T16:05:48;2.83;;;1.80;;
9960;SDS011;5021;51.506;11.320;2023-03-31T16:08:16;3.00;;;1.80;;
9960;SDS011;5021;51.506;11.320;2023-03-31T16:10:44;3.20;;;1.80;;
9960;SDS011;5021;51.506;11.320;2023-03-31T16:13:10;5.33;;;2.07;;
9960;SDS011;5021;51.506;11.320;2023-03-31T16:15:45;3.07;;;1.93;;
9960;SDS011;5021;51.506;11.320;2023-03-31T16:18:23;2.27;;;1.47;;
9960;SDS011;5021;51.506;11.320;2023-03-31T16:20:52;2.40;;;1.60;;
9960;SDS011;5021;51.506;11.320;2023-03-31T16:23:19;2.90;;;1.50;;
9960;SDS011;5021;51.506;11.320;2023-03-31T16:25:46;2.37;;;2.07;;
9960;SDS011;5021;51.506;11.320;2023-03-31T16:28:12;4.60;;;1.93;;
9960;SDS011;5021;51.506;11.320;2023-03-31T16:30:41;4.93;;;2.40;;
9960;SDS011;5021;51.506;11.320;2023-03-31T16:33:11;4.40;;;1.70;;
9960;SDS011;5021;51.506;11.320;2023-03-31T16:35:41;2.70;;;2.17;;
9960;SDS011;5021;51.506;11.320;2023-03-31T16:38:08;2.00;;;0.90;;
9960;SDS011;5021;51.506;11.320;2023-03-31T16:40:39;1.70;;;1.27;;
9960;SDS011;5021;51.506;11.320;2023-03-31T16:43:16;1.10;;;0.90;;
9960;SDS011;5021;51.506;11.320;2023-03-31T16:45:43;2.30;;;0.97;;
9960;SDS011;5021;51.506;11.320;2023-03-31T16:48:09;2.10;;;1.20;;
9960;SDS011;5021;51.506;11.320;2023-03-31T16:50:38;2.53;;;0.90;;
9960;SDS011;5021;51.506;11.320;2023-03-31T16:53:05;1.70;;;0.90;;
9960;SDS011;5021;51.506;11.320;2023-03-31T16:55:31;1.70;;;1.17;;
9960;SDS011;5021;51.506;11.320;2023-03-31T16:57:57;1.50;;;1.40;;
9960;SDS011;5021;51.506;11.320;2023-03-31T17:00:27;2.70;;;2.20;;
9960;SDS011;5021;51.506;11.320;2023-03-31T17:02:53;1.50;;;1.40;;
9960;SDS011;5021;51.506;11.320;2023-03-31T17:05:18;2.87;;;1.47;;
9960;SDS011;5021;51.506;11.320;2023-03-31T17:07:45;1.83;;;1.27;;
9960;SDS011;5021;51.506;11.320;2023-03-31T17:10:11;1.60;;;1.20;;
9960;SDS011;5021;51.506;11.320;2023-03-31T17:12:37;3.73;;;1.20;;
9960;SDS011;5021;51.506;11.320;2023-03-31T17:15:03;0.97;;;0.90;;
9960;SDS011;5021;51.506;11.320;2023-03-31T17:17:29;2.53;;;1.87;;
9960;SDS011;5021;51.506;11.320;2023-03-31T17:19:55;4.20;;;1.80;;
9960;SDS011;5021;51.506;11.320;2023-03-31T17:22:23;2.70;;;1.90;;
9960;SDS011;5021;51.506;11.320;2023-03-31T17:24:49;2.67;;;2.10;;